sensor_id;sensor_type;location;lat;lon;timestamp;P1;durP1;ratioP1;P2;durP2;ratioP2
24084;SDS011;12268;52.110;5.548;2022-11-13T00:01:36;21.27;;;11.48;;
24084;SDS011;12268;52.110;5.548;2022-11-13T00:04:02;19.58;;;12.30;;
24084;SDS011;12268;52.110;5.548;2022-11-13T00:06:27;24.38;;;11.55;;
24084;SDS011;12268;52.110;5.548;2022-11-13T00:08:53;24.08;;;12.27;;
24084;SDS011;12268;52.110;5.548;2022-11-13T00:11:19;24.33;;;12.15;;
24084;SDS011;12268;52.110;5.548;2022-11-13T00:13:45;16.83;;;10.75;;
24084;SDS011;12268;52.110;5.548;2022-11-13T00:16:13;18.58;;;11.18;;
24084;SDS011;12268;52.110;5.548;2022-11-13T00:18:40;20.77;;;11.68;;
24084;SDS011;12268;52.110;5.548;2022-11-13T00:21:06;28.35;;;12.23;;
24084;SDS011;12268;52.110;5.548;2022-11-13T00:23:35;20.90;;;13.43;;
24084;SDS011;12268;52.110;5.548;2022-11-13T00:26:10;22.98;;;13.45;;
24084;SDS011;12268;52.110;5.548;2022-11-13T00:28:38;28.75;;;13.07;;
24084;SDS011;12268;52.110;5.548;2022-11-13T00:31:04;19.42;;;11.05;;
24084;SDS011;12268;52.110;5.548;2022-11-13T00:33:31;17.90;;;11.48;;
24084;SDS011;12268;52.110;5.548;2022-11-13T00:36:01;19.52;;;11.85;;
24084;SDS011;12268;52.110;5.548;2022-11-13T00:38:35;19.63;;;11.75;;
24084;SDS011;12268;52.110;5.548;2022-11-13T00:41:01;17.88;;;10.95;;
24084;SDS011;12268;52.110;5.548;2022-11-13T00:43:27;20.27;;;11.63;;
24084;SDS011;12268;52.110;5.548;2022-11-13T00:45:53;21.85;;;12.05;;
24084;SDS011;12268;52.110;5.548;2022-11-13T00:48:18;22.85;;;12.02;;
24084;SDS011;12268;52.110;5.548;2022-11-13T00:50:44;24.50;;;13.05;;
24084;SDS011;12268;52.110;5.548;2022-11-13T00:53:11;21.92;;;12.95;;
24084;SDS011;12268;52.110;5.548;2022-11-13T00:55:36;23.38;;;12.95;;
24084;SDS011;12268;52.110;5.548;2022-11-13T00:58:02;24.25;;;12.73;;
24084;SDS011;12268;52.110;5.548;2022-11-13T01:00:28;20.40;;;12.23;;
24084;SDS011;12268;52.110;5.548;2022-11-13T01:02:54;20.42;;;11.65;;
24084;SDS011;12268;52.110;5.548;2022-11-13T01:05:22;25.48;;;12.30;;
24084;SDS011;12268;52.110;5.548;2022-11-13T01:07:47;21.52;;;11.75;;
24084;SDS011;12268;52.110;5.548;2022-11-13T01:10:13;23.33;;;12.13;;
24084;SDS011;12268;52.110;5.548;2022-11-13T01:12:39;21.58;;;12.13;;
24084;SDS011;12268;52.110;5.548;2022-11-13T01:15:05;18.90;;;12.65;;
24084;SDS011;12268;52.110;5.548;2022-11-13T01:17:31;18.55;;;11.80;;
24084;SDS011;12268;52.110;5.548;2022-11-13T01:19:56;19.65;;;12.13;;
24084;SDS011;12268;52.110;5.548;2022-11-13T01:22:22;20.02;;;11.43;;
24084;SDS011;12268;52.110;5.548;2022-11-13T01:24:47;21.10;;;11.80;;
24084;SDS011;12268;52.110;5.548;2022-11-13T01:27:13;25.23;;;12.65;;
24084;SDS011;12268;52.110;5.548;2022-11-13T01:29:39;21.45;;;12.18;;
24084;SDS011;12268;52.110;5.548;2022-11-13T01:32:06;17.33;;;11.30;;
24084;SDS011;12268;52.110;5.548;2022-11-13T01:34:31;19.23;;;11.45;;
24084;SDS011;12268;52.110;5.548;2022-11-13T01:36:57;25.50;;;13.30;;
24084;SDS011;12268;52.110;5.548;2022-11-13T01:39:22;22.70;;;13.50;;
24084;SDS011;12268;52.110;5.548;2022-11-13T01:41:48;21.90;;;12.98;;
24084;SDS011;12268;52.110;5.548;2022-11-13T01:44:14;21.42;;;13.18;;
24084;SDS011;12268;52.110;5.548;2022-11-13T01:46:49;23.83;;;13.93;;
24084;SDS011;12268;52.110;5.548;2022-11-13T01:49:25;26.40;;;13.90;;
24084;SDS011;12268;52.110;5.548;2022-11-13T01:54:22;26.58;;;13.77;;
24084;SDS011;12268;52.110;5.548;2022-11-13T01:56:54;28.23;;;15.43;;
24084;SDS011;12268;52.110;5.548;2022-11-13T01:59:22;27.65;;;14.75;;
24084;SDS011;12268;52.110;5.548;2022-11-13T02:01:51;26.63;;;14.48;;
24084;SDS011;12268;52.110;5.548;2022-11-13T02:04:17;22.33;;;14.05;;
24084;SDS011;12268;52.110;5.548;2022-11-13T02:06:56;27.55;;;14.00;;
24084;SDS011;12268;52.110;5.548;2022-11-13T02:09:26;22.77;;;14.00;;
24084;SDS011;12268;52.110;5.548;2022-11-13T02:12:00;21.92;;;13.20;;
24084;SDS011;12268;52.110;5.548;2022-11-13T02:14:26;20.95;;;12.80;;
24084;SDS011;12268;52.110;5.548;2022-11-13T02:16:55;23.63;;;13.20;;
24084;SDS011;12268;52.110;5.548;2022-11-13T02:19:24;21.75;;;13.10;;
24084;SDS011;12268;52.110;5.548;2022-11-13T02:24:42;22.02;;;12.68;;
24084;SDS011;12268;52.110;5.548;2022-11-13T02:27:10;21.77;;;13.10;;
24084;SDS011;12268;52.110;5.548;2022-11-13T02:29:41;26.48;;;13.80;;
24084;SDS011;12268;52.110;5.548;2022-11-13T02:32:07;24.92;;;13.15;;
24084;SDS011;12268;52.110;5.548;2022-11-13T02:34:32;23.65;;;13.25;;
24084;SDS011;12268;52.110;5.548;2022-11-13T02:36:58;21.15;;;13.02;;
24084;SDS011;12268;52.110;5.548;2022-11-13T02:39:23;18.73;;;12.23;;
24084;SDS011;12268;52.110;5.548;2022-11-13T02:41:49;22.33;;;11.73;;
24084;SDS011;12268;52.110;5.548;2022-11-13T02:44:14;19.73;;;11.70;;
24084;SDS011;12268;52.110;5.548;2022-11-13T02:46:40;18.70;;;12.23;;
24084;SDS011;12268;52.110;5.548;2022-11-13T02:49:05;22.08;;;12.35;;
24084;SDS011;12268;52.110;5.548;2022-11-13T02:51:31;20.23;;;11.98;;
24084;SDS011;12268;52.110;5.548;2022-11-13T02:53:57;20.92;;;12.07;;
24084;SDS011;12268;52.110;5.548;2022-11-13T02:56:23;22.20;;;12.60;;
24084;SDS011;12268;52.110;5.548;2022-11-13T02:58:48;19.88;;;11.70;;
24084;SDS011;12268;52.110;5.548;2022-11-13T03:01:14;17.38;;;10.85;;
24084;SDS011;12268;52.110;5.548;2022-11-13T03:03:39;18.95;;;11.93;;
24084;SDS011;12268;52.110;5.548;2022-11-13T03:06:05;20.05;;;12.18;;
24084;SDS011;12268;52.110;5.548;2022-11-13T03:08:30;23.40;;;12.52;;
24084;SDS011;12268;52.110;5.548;2022-11-13T03:10:56;21.48;;;11.73;;
24084;SDS011;12268;52.110;5.548;2022-11-13T03:13:22;17.88;;;11.60;;
24084;SDS011;12268;52.110;5.548;2022-11-13T03:15:47;16.83;;;10.88;;
24084;SDS011;12268;52.110;5.548;2022-11-13T03:18:13;17.05;;;11.30;;
24084;SDS011;12268;52.110;5.548;2022-11-13T03:20:39;17.83;;;10.77;;
24084;SDS011;12268;52.110;5.548;2022-11-13T03:23:07;18.45;;;11.30;;
24084;SDS011;12268;52.110;5.548;2022-11-13T03:25:33;15.98;;;11.02;;
24084;SDS011;12268;52.110;5.548;2022-11-13T03:27:58;22.23;;;11.15;;
24084;SDS011;12268;52.110;5.548;2022-11-13T03:30:25;18.77;;;11.65;;
24084;SDS011;12268;52.110;5.548;2022-11-13T03:32:54;21.52;;;11.23;;
24084;SDS011;12268;52.110;5.548;2022-11-13T03:35:21;20.42;;;11.20;;
24084;SDS011;12268;52.110;5.548;2022-11-13T03:37:48;18.42;;;10.77;;
24084;SDS011;12268;52.110;5.548;2022-11-13T03:40:14;19.80;;;11.70;;
24084;SDS011;12268;52.110;5.548;2022-11-13T03:42:40;20.05;;;10.95;;
24084;SDS011;12268;52.110;5.548;2022-11-13T03:45:05;16.15;;;10.15;;
24084;SDS011;12268;52.110;5.548;2022-11-13T03:47:31;18.17;;;10.65;;
24084;SDS011;12268;52.110;5.548;2022-11-13T03:49:56;22.00;;;11.00;;
24084;SDS011;12268;52.110;5.548;2022-11-13T03:52:22;17.05;;;10.68;;
24084;SDS011;12268;52.110;5.548;2022-11-13T03:54:47;19.63;;;11.15;;
24084;SDS011;12268;52.110;5.548;2022-11-13T03:57:13;19.50;;;11.00;;
24084;SDS011;12268;52.110;5.548;2022-11-13T03:59:39;15.77;;;9.95;;
24084;SDS011;12268;52.110;5.548;2022-11-13T04:02:04;15.18;;;10.38;;
24084;SDS011;12268;52.110;5.548;2022-11-13T04:04:30;21.75;;;10.90;;
24084;SDS011;12268;52.110;5.548;2022-11-13T04:06:56;20.98;;;11.25;;
24084;SDS011;12268;52.110;5.548;2022-11-13T04:09:21;19.42;;;10.98;;
24084;SDS011;12268;52.110;5.548;2022-11-13T04:11:47;24.00;;;12.93;;
24084;SDS011;12268;52.110;5.548;2022-11-13T04:14:12;24.65;;;12.57;;
24084;SDS011;12268;52.110;5.548;2022-11-13T04:16:38;22.15;;;11.70;;
24084;SDS011;12268;52.110;5.548;2022-11-13T04:19:03;23.60;;;12.63;;
24084;SDS011;12268;52.110;5.548;2022-11-13T04:21:29;18.90;;;11.60;;
24084;SDS011;12268;52.110;5.548;2022-11-13T04:23:54;16.17;;;9.98;;
24084;SDS011;12268;52.110;5.548;2022-11-13T04:26:20;17.00;;;10.20;;
24084;SDS011;12268;52.110;5.548;2022-11-13T04:28:45;21.80;;;10.70;;
24084;SDS011;12268;52.110;5.548;2022-11-13T04:31:11;21.00;;;11.27;;
24084;SDS011;12268;52.110;5.548;2022-11-13T04:33:36;20.60;;;10.75;;
24084;SDS011;12268;52.110;5.548;2022-11-13T04:36:02;18.25;;;10.27;;
24084;SDS011;12268;52.110;5.548;2022-11-13T04:38:27;16.92;;;9.32;;
24084;SDS011;12268;52.110;5.548;2022-11-13T04:40:53;15.02;;;9.27;;
24084;SDS011;12268;52.110;5.548;2022-11-13T04:43:38;17.42;;;9.82;;
24084;SDS011;12268;52.110;5.548;2022-11-13T04:46:04;18.08;;;11.13;;
24084;SDS011;12268;52.110;5.548;2022-11-13T04:48:29;18.70;;;10.35;;
24084;SDS011;12268;52.110;5.548;2022-11-13T04:50:55;18.13;;;10.68;;
24084;SDS011;12268;52.110;5.548;2022-11-13T04:53:20;15.77;;;9.98;;
24084;SDS011;12268;52.110;5.548;2022-11-13T04:55:46;15.02;;;10.07;;
24084;SDS011;12268;52.110;5.548;2022-11-13T04:58:11;13.88;;;8.75;;
24084;SDS011;12268;52.110;5.548;2022-11-13T05:00:37;16.38;;;9.27;;
24084;SDS011;12268;52.110;5.548;2022-11-13T05:03:02;18.27;;;10.73;;
24084;SDS011;12268;52.110;5.548;2022-11-13T05:05:28;20.42;;;10.65;;
24084;SDS011;12268;52.110;5.548;2022-11-13T05:07:53;19.23;;;11.07;;
24084;SDS011;12268;52.110;5.548;2022-11-13T05:10:19;17.17;;;10.32;;
24084;SDS011;12268;52.110;5.548;2022-11-13T05:12:45;17.35;;;9.73;;
24084;SDS011;12268;52.110;5.548;2022-11-13T05:15:11;15.93;;;9.35;;
24084;SDS011;12268;52.110;5.548;2022-11-13T05:17:36;15.90;;;10.65;;
24084;SDS011;12268;52.110;5.548;2022-11-13T05:20:02;15.10;;;9.88;;
24084;SDS011;12268;52.110;5.548;2022-11-13T05:22:28;15.82;;;9.77;;
24084;SDS011;12268;52.110;5.548;2022-11-13T05:24:54;17.20;;;10.30;;
24084;SDS011;12268;52.110;5.548;2022-11-13T05:27:19;16.98;;;9.77;;
24084;SDS011;12268;52.110;5.548;2022-11-13T05:29:45;17.42;;;10.07;;
24084;SDS011;12268;52.110;5.548;2022-11-13T05:32:10;17.25;;;10.07;;
24084;SDS011;12268;52.110;5.548;2022-11-13T05:34:36;18.75;;;10.52;;
24084;SDS011;12268;52.110;5.548;2022-11-13T05:37:01;18.00;;;10.27;;
24084;SDS011;12268;52.110;5.548;2022-11-13T05:39:27;16.67;;;10.05;;
24084;SDS011;12268;52.110;5.548;2022-11-13T05:41:52;15.00;;;9.80;;
24084;SDS011;12268;52.110;5.548;2022-11-13T05:44:18;18.92;;;9.75;;
24084;SDS011;12268;52.110;5.548;2022-11-13T05:46:43;16.65;;;9.15;;
24084;SDS011;12268;52.110;5.548;2022-11-13T05:49:09;16.40;;;9.68;;
24084;SDS011;12268;52.110;5.548;2022-11-13T05:51:35;16.90;;;10.07;;
24084;SDS011;12268;52.110;5.548;2022-11-13T05:54:00;14.40;;;9.07;;
24084;SDS011;12268;52.110;5.548;2022-11-13T05:56:30;18.40;;;9.65;;
24084;SDS011;12268;52.110;5.548;2022-11-13T05:58:58;18.58;;;10.00;;
24084;SDS011;12268;52.110;5.548;2022-11-13T06:01:34;16.90;;;9.50;;
24084;SDS011;12268;52.110;5.548;2022-11-13T06:04:01;14.25;;;9.10;;
24084;SDS011;12268;52.110;5.548;2022-11-13T06:06:28;15.65;;;9.13;;
24084;SDS011;12268;52.110;5.548;2022-11-13T06:08:55;14.15;;;8.85;;
24084;SDS011;12268;52.110;5.548;2022-11-13T06:11:23;20.15;;;8.93;;
24084;SDS011;12268;52.110;5.548;2022-11-13T06:13:50;13.70;;;8.93;;
24084;SDS011;12268;52.110;5.548;2022-11-13T06:16:17;18.42;;;8.98;;
24084;SDS011;12268;52.110;5.548;2022-11-13T06:18:45;18.35;;;9.45;;
24084;SDS011;12268;52.110;5.548;2022-11-13T06:21:12;14.88;;;9.65;;
24084;SDS011;12268;52.110;5.548;2022-11-13T06:23:41;18.38;;;9.82;;
24084;SDS011;12268;52.110;5.548;2022-11-13T06:26:08;16.50;;;9.80;;
24084;SDS011;12268;52.110;5.548;2022-11-13T06:28:38;20.08;;;9.35;;
24084;SDS011;12268;52.110;5.548;2022-11-13T06:31:05;18.25;;;9.48;;
24084;SDS011;12268;52.110;5.548;2022-11-13T06:33:36;16.13;;;9.25;;
24084;SDS011;12268;52.110;5.548;2022-11-13T06:36:06;22.25;;;10.07;;
24084;SDS011;12268;52.110;5.548;2022-11-13T06:38:35;18.25;;;9.88;;
24084;SDS011;12268;52.110;5.548;2022-11-13T06:41:02;14.48;;;9.65;;
24084;SDS011;12268;52.110;5.548;2022-11-13T06:43:29;24.65;;;11.43;;
24084;SDS011;12268;52.110;5.548;2022-11-13T06:45:55;16.40;;;10.32;;
24084;SDS011;12268;52.110;5.548;2022-11-13T06:48:21;18.52;;;10.52;;
24084;SDS011;12268;52.110;5.548;2022-11-13T06:50:47;20.60;;;9.70;;
24084;SDS011;12268;52.110;5.548;2022-11-13T06:53:13;16.08;;;9.48;;
24084;SDS011;12268;52.110;5.548;2022-11-13T06:55:46;18.67;;;10.63;;
24084;SDS011;12268;52.110;5.548;2022-11-13T06:58:14;16.70;;;10.25;;
24084;SDS011;12268;52.110;5.548;2022-11-13T07:00:40;21.25;;;10.02;;
24084;SDS011;12268;52.110;5.548;2022-11-13T07:03:14;16.38;;;9.93;;
24084;SDS011;12268;52.110;5.548;2022-11-13T07:05:44;18.08;;;9.68;;
24084;SDS011;12268;52.110;5.548;2022-11-13T07:08:10;15.20;;;9.63;;
24084;SDS011;12268;52.110;5.548;2022-11-13T07:10:36;18.23;;;10.35;;
24084;SDS011;12268;52.110;5.548;2022-11-13T07:13:02;18.00;;;11.10;;
24084;SDS011;12268;52.110;5.548;2022-11-13T07:15:28;18.85;;;10.95;;
24084;SDS011;12268;52.110;5.548;2022-11-13T07:17:53;20.77;;;10.68;;
24084;SDS011;12268;52.110;5.548;2022-11-13T07:20:19;18.48;;;10.63;;
24084;SDS011;12268;52.110;5.548;2022-11-13T07:22:44;13.52;;;9.20;;
24084;SDS011;12268;52.110;5.548;2022-11-13T07:25:10;17.08;;;9.77;;
24084;SDS011;12268;52.110;5.548;2022-11-13T07:27:35;17.33;;;10.45;;
24084;SDS011;12268;52.110;5.548;2022-11-13T07:30:01;14.73;;;9.27;;
24084;SDS011;12268;52.110;5.548;2022-11-13T07:32:27;15.98;;;9.20;;
24084;SDS011;12268;52.110;5.548;2022-11-13T07:34:52;17.58;;;9.90;;
24084;SDS011;12268;52.110;5.548;2022-11-13T07:37:18;17.90;;;11.07;;
24084;SDS011;12268;52.110;5.548;2022-11-13T07:39:43;19.02;;;10.98;;
24084;SDS011;12268;52.110;5.548;2022-11-13T07:42:09;19.20;;;10.13;;
24084;SDS011;12268;52.110;5.548;2022-11-13T07:44:34;20.52;;;10.48;;
24084;SDS011;12268;52.110;5.548;2022-11-13T07:47:00;18.60;;;12.15;;
24084;SDS011;12268;52.110;5.548;2022-11-13T07:49:25;21.45;;;12.30;;
24084;SDS011;12268;52.110;5.548;2022-11-13T07:51:51;21.58;;;12.20;;
24084;SDS011;12268;52.110;5.548;2022-11-13T07:54:16;21.33;;;13.82;;
24084;SDS011;12268;52.110;5.548;2022-11-13T07:56:42;19.35;;;12.13;;
24084;SDS011;12268;52.110;5.548;2022-11-13T07:59:08;21.45;;;12.02;;
24084;SDS011;12268;52.110;5.548;2022-11-13T08:01:34;18.63;;;12.43;;
24084;SDS011;12268;52.110;5.548;2022-11-13T08:04:00;17.77;;;11.93;;
24084;SDS011;12268;52.110;5.548;2022-11-13T08:06:25;18.73;;;12.35;;
24084;SDS011;12268;52.110;5.548;2022-11-13T08:08:52;19.90;;;11.15;;
24084;SDS011;12268;52.110;5.548;2022-11-13T08:11:18;15.68;;;11.38;;
24084;SDS011;12268;52.110;5.548;2022-11-13T08:13:44;17.92;;;11.43;;
24084;SDS011;12268;52.110;5.548;2022-11-13T08:16:09;16.05;;;10.95;;
24084;SDS011;12268;52.110;5.548;2022-11-13T08:18:35;17.58;;;11.00;;
24084;SDS011;12268;52.110;5.548;2022-11-13T08:21:01;20.45;;;11.70;;
24084;SDS011;12268;52.110;5.548;2022-11-13T08:23:27;18.20;;;10.77;;
24084;SDS011;12268;52.110;5.548;2022-11-13T08:25:53;17.85;;;11.85;;
24084;SDS011;12268;52.110;5.548;2022-11-13T08:28:19;19.38;;;11.95;;
24084;SDS011;12268;52.110;5.548;2022-11-13T08:30:44;23.58;;;12.32;;
24084;SDS011;12268;52.110;5.548;2022-11-13T08:33:10;21.00;;;12.27;;
24084;SDS011;12268;52.110;5.548;2022-11-13T08:35:36;19.23;;;12.52;;
24084;SDS011;12268;52.110;5.548;2022-11-13T08:38:02;19.75;;;11.80;;
24084;SDS011;12268;52.110;5.548;2022-11-13T08:40:29;22.35;;;13.68;;
24084;SDS011;12268;52.110;5.548;2022-11-13T08:43:01;23.02;;;12.25;;
24084;SDS011;12268;52.110;5.548;2022-11-13T08:45:28;20.33;;;12.52;;
24084;SDS011;12268;52.110;5.548;2022-11-13T08:47:58;20.77;;;12.63;;
24084;SDS011;12268;52.110;5.548;2022-11-13T08:50:24;19.70;;;12.45;;
24084;SDS011;12268;52.110;5.548;2022-11-13T08:52:54;22.27;;;13.52;;
24084;SDS011;12268;52.110;5.548;2022-11-13T08:55:20;21.08;;;12.63;;
24084;SDS011;12268;52.110;5.548;2022-11-13T08:57:47;24.40;;;14.27;;
24084;SDS011;12268;52.110;5.548;2022-11-13T09:00:13;22.40;;;13.65;;
24084;SDS011;12268;52.110;5.548;2022-11-13T09:02:39;22.20;;;14.90;;
24084;SDS011;12268;52.110;5.548;2022-11-13T09:05:04;15.85;;;12.05;;
24084;SDS011;12268;52.110;5.548;2022-11-13T09:07:30;12.75;;;9.85;;
24084;SDS011;12268;52.110;5.548;2022-11-13T09:09:56;13.20;;;9.43;;
24084;SDS011;12268;52.110;5.548;2022-11-13T09:12:21;16.58;;;8.98;;
24084;SDS011;12268;52.110;5.548;2022-11-13T09:14:47;10.05;;;7.88;;
24084;SDS011;12268;52.110;5.548;2022-11-13T09:17:12;11.27;;;7.75;;
24084;SDS011;12268;52.110;5.548;2022-11-13T09:19:38;10.35;;;7.55;;
24084;SDS011;12268;52.110;5.548;2022-11-13T09:22:04;10.82;;;7.70;;
24084;SDS011;12268;52.110;5.548;2022-11-13T09:24:29;11.30;;;7.75;;
24084;SDS011;12268;52.110;5.548;2022-11-13T09:26:55;10.32;;;8.07;;
24084;SDS011;12268;52.110;5.548;2022-11-13T09:29:20;10.73;;;7.88;;
24084;SDS011;12268;52.110;5.548;2022-11-13T09:31:47;10.85;;;7.85;;
24084;SDS011;12268;52.110;5.548;2022-11-13T09:34:13;10.45;;;8.32;;
24084;SDS011;12268;52.110;5.548;2022-11-13T09:36:39;11.18;;;8.82;;
24084;SDS011;12268;52.110;5.548;2022-11-13T09:39:04;10.98;;;8.45;;
24084;SDS011;12268;52.110;5.548;2022-11-13T09:41:31;9.30;;;8.30;;
24084;SDS011;12268;52.110;5.548;2022-11-13T09:44:14;13.35;;;8.48;;
24084;SDS011;12268;52.110;5.548;2022-11-13T09:46:53;11.40;;;7.85;;
24084;SDS011;12268;52.110;5.548;2022-11-13T09:49:24;9.90;;;8.18;;
24084;SDS011;12268;52.110;5.548;2022-11-13T09:51:57;13.93;;;8.68;;
24084;SDS011;12268;52.110;5.548;2022-11-13T09:54:29;12.63;;;9.30;;
24084;SDS011;12268;52.110;5.548;2022-11-13T09:57:41;10.93;;;8.35;;
24084;SDS011;12268;52.110;5.548;2022-11-13T09:59:47;12.82;;;9.13;;
24084;SDS011;12268;52.110;5.548;2022-11-13T10:05:28;9.75;;;8.75;;
24084;SDS011;12268;52.110;5.548;2022-11-13T10:15:57;17.00;;;9.15;;
24084;SDS011;12268;52.110;5.548;2022-11-13T10:18:29;10.80;;;8.50;;
24084;SDS011;12268;52.110;5.548;2022-11-13T10:21:09;11.90;;;8.23;;
24084;SDS011;12268;52.110;5.548;2022-11-13T10:23:59;11.75;;;8.57;;
24084;SDS011;12268;52.110;5.548;2022-11-13T10:26:28;14.32;;;8.93;;
24084;SDS011;12268;52.110;5.548;2022-11-13T10:28:57;10.63;;;8.27;;
24084;SDS011;12268;52.110;5.548;2022-11-13T10:31:25;13.13;;;8.85;;
24084;SDS011;12268;52.110;5.548;2022-11-13T10:33:51;12.27;;;8.48;;
24084;SDS011;12268;52.110;5.548;2022-11-13T10:36:29;13.50;;;8.90;;
24084;SDS011;12268;52.110;5.548;2022-11-13T10:39:04;11.15;;;8.52;;
24084;SDS011;12268;52.110;5.548;2022-11-13T10:41:31;12.25;;;8.85;;
24084;SDS011;12268;52.110;5.548;2022-11-13T10:43:57;11.63;;;8.13;;
24084;SDS011;12268;52.110;5.548;2022-11-13T10:46:26;10.93;;;8.50;;
24084;SDS011;12268;52.110;5.548;2022-11-13T10:48:54;10.63;;;8.05;;
24084;SDS011;12268;52.110;5.548;2022-11-13T10:51:28;15.48;;;8.65;;
24084;SDS011;12268;52.110;5.548;2022-11-13T10:53:55;11.13;;;7.88;;
24084;SDS011;12268;52.110;5.548;2022-11-13T11:01:37;10.77;;;8.38;;
24084;SDS011;12268;52.110;5.548;2022-11-13T11:04:09;11.43;;;8.88;;
24084;SDS011;12268;52.110;5.548;2022-11-13T11:06:48;11.43;;;8.95;;
24084;SDS011;12268;52.110;5.548;2022-11-13T11:09:17;9.60;;;8.25;;
24084;SDS011;12268;52.110;5.548;2022-11-13T11:14:56;9.77;;;7.65;;
24084;SDS011;12268;52.110;5.548;2022-11-13T11:17:24;9.38;;;7.32;;
24084;SDS011;12268;52.110;5.548;2022-11-13T11:20:19;9.90;;;7.70;;
24084;SDS011;12268;52.110;5.548;2022-11-13T11:23:18;9.63;;;7.60;;
24084;SDS011;12268;52.110;5.548;2022-11-13T11:25:52;9.80;;;7.63;;
24084;SDS011;12268;52.110;5.548;2022-11-13T11:28:38;11.65;;;7.63;;
24084;SDS011;12268;52.110;5.548;2022-11-13T11:39:39;10.23;;;7.30;;
24084;SDS011;12268;52.110;5.548;2022-11-13T11:42:18;11.50;;;7.47;;
24084;SDS011;12268;52.110;5.548;2022-11-13T11:47:47;13.50;;;8.18;;
24084;SDS011;12268;52.110;5.548;2022-11-13T11:50:20;30.25;;;14.52;;
24084;SDS011;12268;52.110;5.548;2022-11-13T11:55:56;11.68;;;7.97;;
24084;SDS011;12268;52.110;5.548;2022-11-13T12:01:32;9.48;;;7.22;;
24084;SDS011;12268;52.110;5.548;2022-11-13T12:07:39;10.73;;;7.28;;
24084;SDS011;12268;52.110;5.548;2022-11-13T12:10:22;13.90;;;7.35;;
24084;SDS011;12268;52.110;5.548;2022-11-13T12:13:10;10.75;;;6.70;;
24084;SDS011;12268;52.110;5.548;2022-11-13T12:27:12;4.43;;;3.05;;
24084;SDS011;12268;52.110;5.548;2022-11-13T12:35:19;4.03;;;2.65;;
24084;SDS011;12268;52.110;5.548;2022-11-13T12:40:38;4.22;;;2.28;;
24084;SDS011;12268;52.110;5.548;2022-11-13T12:43:25;4.88;;;2.60;;
24084;SDS011;12268;52.110;5.548;2022-11-13T12:45:59;4.93;;;2.30;;
24084;SDS011;12268;52.110;5.548;2022-11-13T12:48:33;5.63;;;2.30;;
24084;SDS011;12268;52.110;5.548;2022-11-13T12:51:07;6.03;;;2.50;;
24084;SDS011;12268;52.110;5.548;2022-11-13T12:56:28;4.13;;;2.47;;
24084;SDS011;12268;52.110;5.548;2022-11-13T13:01:26;4.10;;;2.45;;
24084;SDS011;12268;52.110;5.548;2022-11-13T13:09:17;4.30;;;2.20;;
24084;SDS011;12268;52.110;5.548;2022-11-13T13:12:05;4.30;;;2.40;;
24084;SDS011;12268;52.110;5.548;2022-11-13T13:14:56;6.53;;;2.92;;
24084;SDS011;12268;52.110;5.548;2022-11-13T13:17:34;6.43;;;2.45;;
24084;SDS011;12268;52.110;5.548;2022-11-13T13:20:00;5.72;;;2.53;;
24084;SDS011;12268;52.110;5.548;2022-11-13T13:22:56;6.63;;;2.67;;
24084;SDS011;12268;52.110;5.548;2022-11-13T13:25:30;4.40;;;2.20;;
24084;SDS011;12268;52.110;5.548;2022-11-13T13:28:12;2.85;;;2.00;;
24084;SDS011;12268;52.110;5.548;2022-11-13T13:30:55;3.90;;;2.15;;
24084;SDS011;12268;52.110;5.548;2022-11-13T13:34:04;4.00;;;1.90;;
24084;SDS011;12268;52.110;5.548;2022-11-13T13:36:45;4.82;;;2.17;;
24084;SDS011;12268;52.110;5.548;2022-11-13T13:42:05;3.13;;;2.13;;
24084;SDS011;12268;52.110;5.548;2022-11-13T13:47:47;3.55;;;2.25;;
24084;SDS011;12268;52.110;5.548;2022-11-13T13:50:17;3.63;;;2.22;;
24084;SDS011;12268;52.110;5.548;2022-11-13T13:52:48;6.10;;;2.15;;
24084;SDS011;12268;52.110;5.548;2022-11-13T13:55:15;4.93;;;2.00;;
24084;SDS011;12268;52.110;5.548;2022-11-13T13:57:46;2.22;;;1.58;;
24084;SDS011;12268;52.110;5.548;2022-11-13T14:00:12;2.50;;;1.70;;
24084;SDS011;12268;52.110;5.548;2022-11-13T14:02:44;4.00;;;2.10;;
24084;SDS011;12268;52.110;5.548;2022-11-13T14:05:28;2.75;;;1.63;;
24084;SDS011;12268;52.110;5.548;2022-11-13T14:07:55;3.42;;;2.15;;
24084;SDS011;12268;52.110;5.548;2022-11-13T14:10:22;5.78;;;2.00;;
24084;SDS011;12268;52.110;5.548;2022-11-13T14:12:49;4.47;;;1.85;;
24084;SDS011;12268;52.110;5.548;2022-11-13T14:15:25;3.25;;;1.90;;
24084;SDS011;12268;52.110;5.548;2022-11-13T14:18:11;4.18;;;1.80;;
24084;SDS011;12268;52.110;5.548;2022-11-13T14:23:12;2.83;;;1.60;;
24084;SDS011;12268;52.110;5.548;2022-11-13T14:25:44;4.10;;;1.80;;
24084;SDS011;12268;52.110;5.548;2022-11-13T14:28:12;4.03;;;2.10;;
24084;SDS011;12268;52.110;5.548;2022-11-13T14:30:42;4.68;;;1.80;;
24084;SDS011;12268;52.110;5.548;2022-11-13T14:33:14;5.60;;;1.88;;
24084;SDS011;12268;52.110;5.548;2022-11-13T14:35:49;3.33;;;1.88;;
24084;SDS011;12268;52.110;5.548;2022-11-13T14:38:18;1.85;;;1.50;;
24084;SDS011;12268;52.110;5.548;2022-11-13T14:40:47;3.42;;;1.75;;
24084;SDS011;12268;52.110;5.548;2022-11-13T14:43:15;2.65;;;1.77;;
24084;SDS011;12268;52.110;5.548;2022-11-13T14:45:57;2.63;;;1.52;;
24084;SDS011;12268;52.110;5.548;2022-11-13T14:48:50;2.88;;;1.70;;
24084;SDS011;12268;52.110;5.548;2022-11-13T14:51:21;5.13;;;2.08;;
24084;SDS011;12268;52.110;5.548;2022-11-13T14:54:01;4.18;;;1.77;;
24084;SDS011;12268;52.110;5.548;2022-11-13T14:56:32;4.70;;;2.33;;
24084;SDS011;12268;52.110;5.548;2022-11-13T14:59:46;7.80;;;2.83;;
24084;SDS011;12268;52.110;5.548;2022-11-13T15:01:57;3.58;;;2.05;;
24084;SDS011;12268;52.110;5.548;2022-11-13T15:04:23;2.88;;;1.88;;
24084;SDS011;12268;52.110;5.548;2022-11-13T15:06:49;3.78;;;2.10;;
24084;SDS011;12268;52.110;5.548;2022-11-13T15:09:19;3.90;;;2.10;;
24084;SDS011;12268;52.110;5.548;2022-11-13T15:11:46;3.05;;;2.00;;
24084;SDS011;12268;52.110;5.548;2022-11-13T15:14:12;4.45;;;2.35;;
24084;SDS011;12268;52.110;5.548;2022-11-13T15:16:39;2.67;;;1.90;;
24084;SDS011;12268;52.110;5.548;2022-11-13T15:19:08;2.47;;;2.00;;
24084;SDS011;12268;52.110;5.548;2022-11-13T15:21:49;3.58;;;1.77;;
24084;SDS011;12268;52.110;5.548;2022-11-13T15:24:14;3.22;;;1.75;;
24084;SDS011;12268;52.110;5.548;2022-11-13T15:26:40;2.75;;;1.65;;
24084;SDS011;12268;52.110;5.548;2022-11-13T15:29:06;2.92;;;2.00;;
24084;SDS011;12268;52.110;5.548;2022-11-13T15:31:33;3.83;;;2.40;;
24084;SDS011;12268;52.110;5.548;2022-11-13T15:33:58;5.97;;;3.65;;
24084;SDS011;12268;52.110;5.548;2022-11-13T15:36:24;3.60;;;2.58;;
24084;SDS011;12268;52.110;5.548;2022-11-13T15:38:50;6.72;;;3.15;;
24084;SDS011;12268;52.110;5.548;2022-11-13T15:41:20;8.85;;;3.47;;
24084;SDS011;12268;52.110;5.548;2022-11-13T15:43:47;8.40;;;4.40;;
24084;SDS011;12268;52.110;5.548;2022-11-13T15:46:15;8.15;;;4.20;;
24084;SDS011;12268;52.110;5.548;2022-11-13T15:48:45;9.70;;;4.70;;
24084;SDS011;12268;52.110;5.548;2022-11-13T15:53:52;15.02;;;5.22;;
24084;SDS011;12268;52.110;5.548;2022-11-13T15:56:26;9.15;;;4.93;;
24084;SDS011;12268;52.110;5.548;2022-11-13T15:58:52;12.13;;;6.10;;
24084;SDS011;12268;52.110;5.548;2022-11-13T16:01:18;9.98;;;5.88;;
24084;SDS011;12268;52.110;5.548;2022-11-13T16:03:44;11.65;;;6.30;;
24084;SDS011;12268;52.110;5.548;2022-11-13T16:06:14;16.25;;;6.60;;
24084;SDS011;12268;52.110;5.548;2022-11-13T16:08:43;11.95;;;6.63;;